Time;durP1;ratioP1;P1;durP2;ratioP2;P2;SDS_P1;SDS_P2;PMS_P1;PMS_P2;Temp;Humidity;BMP_temperature;BMP_pressure;BME280_temperature;BME280_humidity;BME280_pressure;Samples;Min_cycle;Max_cycle;Signal;HPM_P1;HPM_P2
2021/01/14 00:00:13;;;;;;;6.43;3.67;;;2.60;74.70;;;;;;6189994;23;20058;-82
2021/01/14 00:02:39;;;;;;;5.33;3.70;;;2.60;74.40;;;;;;6189471;23;20004;-82
2021/01/14 00:05:07;;;;;;;7.80;4.30;;;2.50;75.00;;;;;;6216327;23;20050;-82
2021/01/14 00:07:32;;;;;;;5.93;4.00;;;2.50;74.40;;;;;;6189379;23;20005;-82
2021/01/14 00:09:58;;;;;;;4.50;2.87;;;2.50;74.80;;;;;;6189282;23;20016;-82
2021/01/14 00:12:24;;;;;;;5.43;3.33;;;2.40;75.00;;;;;;6189266;23;20092;-82
2021/01/14 00:14:50;;;;;;;45.37;4.60;;;2.50;75.10;;;;;;6189871;23;20015;-82
2021/01/14 00:17:16;;;;;;;161.97;14.33;;;2.50;75.00;;;;;;6164038;23;20028;-82
2021/01/14 00:19:42;;;;;;;4.93;4.27;;;2.50;75.00;;;;;;6188962;23;20069;-82
2021/01/14 00:22:08;;;;;;;6.13;4.70;;;2.50;75.70;;;;;;6214468;23;20014;-82
2021/01/14 00:24:34;;;;;;;5.83;4.60;;;2.50;75.30;;;;;;6188512;23;20005;-82
2021/01/14 00:27:00;;;;;;;5.13;3.70;;;2.50;75.50;;;;;;6188772;23;20028;-82
2021/01/14 00:29:27;;;;;;;5.00;3.73;;;2.60;76.00;;;;;;6215576;23;20096;-82
2021/01/14 00:31:53;;;;;;;5.83;4.27;;;2.80;75.90;;;;;;6215950;23;20442;-82
2021/01/14 00:34:19;;;;;;;6.00;4.80;;;2.80;75.20;;;;;;6188446;23;19997;-82
2021/01/14 00:39:29;;;;;;;8.40;5.50;;;2.90;74.70;;;;;;6215447;23;20327;-82
2021/01/14 00:41:55;;;;;;;5.13;3.80;;;2.90;74.60;;;;;;6189217;23;20024;-82
2021/01/14 00:44:21;;;;;;;5.20;3.83;;;2.80;74.70;;;;;;6169730;23;20053;-82
2021/01/14 00:46:47;;;;;;;4.33;3.67;;;2.80;74.80;;;;;;6159642;23;20369;-82
2021/01/14 00:49:13;;;;;;;6.57;4.20;;;2.90;75.20;;;;;;6159932;23;20012;-81
2021/01/14 00:51:39;;;;;;;5.97;4.50;;;2.90;75.20;;;;;;6159325;23;20095;-81
2021/01/14 00:54:06;;;;;;;5.93;5.30;;;3.00;75.20;;;;;;6185404;23;20324;-82
2021/01/14 00:56:33;;;;;;;6.97;5.57;;;3.00;74.90;;;;;;6160256;23;20092;-82
2021/01/14 00:58:59;;;;;;;11.60;5.03;;;3.00;75.00;;;;;;6160348;23;20078;-82
2021/01/14 01:01:28;;;;;;;5.13;4.00;;;3.00;75.20;;;;;;6184864;23;20001;-82
2021/01/14 01:03:54;;;;;;;5.93;4.03;;;3.10;75.20;;;;;;6159474;23;20005;-82
2021/01/14 01:06:31;;;;;;;5.47;4.90;;;3.10;75.00;;;;;;6158263;23;20016;-82
2021/01/14 01:08:57;;;;;;;5.80;5.20;;;3.10;75.00;;;;;;6158509;23;20369;-82
2021/01/14 01:11:27;;;;;;;6.13;5.27;;;3.10;75.00;;;;;;6159148;23;20008;-82
2021/01/14 01:13:53;;;;;;;8.70;7.60;;;3.10;74.90;;;;;;6155847;23;20031;-82
2021/01/14 01:16:19;;;;;;;6.60;5.70;;;3.10;74.80;;;;;;6155325;23;20009;-82
2021/01/14 01:18:45;;;;;;;7.10;5.33;;;3.10;75.10;;;;;;6159529;23;20016;-82
2021/01/14 01:21:11;;;;;;;6.10;5.50;;;3.10;74.90;;;;;;6159685;23;20001;-82
2021/01/14 01:23:37;;;;;;;5.97;5.17;;;3.20;75.00;;;;;;6159537;23;20039;-82
2021/01/14 01:26:04;;;;;;;5.40;4.67;;;3.20;74.80;;;;;;6185193;23;20032;-82
2021/01/14 01:28:29;;;;;;;8.23;5.03;;;3.30;74.80;;;;;;6158791;23;20005;-82
2021/01/14 01:30:55;;;;;;;8.43;5.10;;;3.30;74.70;;;;;;6159478;23;20704;-82
2021/01/14 01:33:27;;;;;;;7.97;5.93;;;3.30;74.80;;;;;;6159493;23;20005;-82
2021/01/14 01:35:54;;;;;;;8.25;6.18;;;3.30;74.60;;;;;;6160608;23;20531;-82
2021/01/14 01:38:21;;;;;;;7.87;5.33;;;3.30;74.70;;;;;;6187583;23;20005;-82
2021/01/14 01:41:01;;;;;;;6.30;4.83;;;3.20;74.60;;;;;;6137424;23;20337;-82
2021/01/14 01:43:27;;;;;;;6.13;4.50;;;3.20;74.80;;;;;;6195747;23;20055;-82
2021/01/14 01:45:54;;;;;;;7.13;5.40;;;3.10;75.10;;;;;;6190777;23;20009;-82
2021/01/14 01:48:20;;;;;;;4.83;4.30;;;3.20;75.40;;;;;;6191641;23;20013;-82
2021/01/14 01:50:48;;;;;;;4.63;3.63;;;3.30;75.20;;;;;;6191617;23;20083;-82
2021/01/14 01:53:14;;;;;;;4.43;3.60;;;3.40;75.20;;;;;;6218369;23;19997;-82
2021/01/14 01:55:43;;;;;;;4.80;3.50;;;3.40;75.10;;;;;;6190137;23;20012;-82
2021/01/14 01:58:11;;;;;;;4.40;3.40;;;3.40;75.20;;;;;;6191897;23;20028;-82
2021/01/14 02:00:36;;;;;;;8.60;4.13;;;3.50;75.30;;;;;;6191677;23;20659;-82
2021/01/14 02:03:02;;;;;;;10.27;6.13;;;3.50;75.00;;;;;;6191790;23;20333;-82
2021/01/14 02:05:28;;;;;;;19.47;9.00;;;3.50;75.10;;;;;;6190121;23;20055;-82
2021/01/14 02:08:25;;;;;;;30.47;12.83;;;3.50;75.10;;;;;;6217315;23;20001;-82
2021/01/14 02:10:54;;;;;;;52.33;20.00;;;3.50;75.00;;;;;;6191135;23;20027;-82
2021/01/14 02:13:25;;;;;;;43.80;17.63;;;3.50;75.00;;;;;;6190964;23;20016;-82
2021/01/14 02:15:52;;;;;;;43.90;18.83;;;3.40;75.00;;;;;;6190737;23;20046;-82
2021/01/14 02:18:19;;;;;;;153.13;54.10;;;3.50;75.10;;;;;;6191378;23;20456;-82
2021/01/14 02:20:55;;;;;;;138.07;51.87;;;3.50;74.90;;;;;;6191116;23;20107;-82
2021/01/14 02:23:45;;;;;;;117.20;47.50;;;3.50;75.10;;;;;;6190801;23;20008;-82
2021/01/14 02:26:20;;;;;;;128.27;46.87;;;3.50;74.80;;;;;;6190428;23;20012;-82
2021/01/14 02:28:46;;;;;;;129.10;50.70;;;3.40;75.00;;;;;;6190585;23;20008;-82
2021/01/14 02:31:13;;;;;;;115.57;45.20;;;3.50;75.10;;;;;;6189224;23;20082;-82
2021/01/14 02:33:40;;;;;;;68.10;31.10;;;3.50;75.00;;;;;;6217208;23;20004;-82
2021/01/14 02:36:06;;;;;;;32.93;15.00;;;3.60;74.90;;;;;;6216805;23;20005;-82
2021/01/14 02:38:32;;;;;;;14.93;9.37;;;3.60;74.90;;;;;;6191069;23;20031;-82
2021/01/14 02:40:58;;;;;;;9.63;7.23;;;3.70;75.00;;;;;;6189900;23;20016;-82
2021/01/14 02:43:24;;;;;;;9.20;6.60;;;3.70;74.80;;;;;;6217288;23;20810;-82
2021/01/14 02:45:50;;;;;;;47.40;21.50;;;3.60;74.80;;;;;;6189940;23;20032;-82
2021/01/14 02:48:20;;;;;;;50.33;21.57;;;3.70;74.90;;;;;;6189740;23;20087;-82
2021/01/14 02:50:51;;;;;;;61.83;25.07;;;3.70;74.80;;;;;;6189464;23;20001;-82
2021/01/14 02:53:17;;;;;;;68.93;28.37;;;3.70;74.70;;;;;;6217402;23;20001;-82
2021/01/14 02:55:44;;;;;;;51.63;22.43;;;3.70;74.80;;;;;;6189725;23;20004;-82
2021/01/14 02:58:10;;;;;;;45.60;18.50;;;3.70;74.90;;;;;;6189672;23;20383;-82
2021/01/14 03:00:36;;;;;;;29.73;14.93;;;3.70;74.70;;;;;;6189967;23;20012;-82
2021/01/14 03:03:02;;;;;;;20.67;11.10;;;3.70;74.70;;;;;;6189646;23;20005;-82
2021/01/14 03:05:27;;;;;;;15.67;8.30;;;3.70;74.70;;;;;;6189416;23;20013;-82
2021/01/14 03:07:53;;;;;;;8.07;5.20;;;3.70;74.70;;;;;;6189620;23;20536;-82
2021/01/14 03:10:19;;;;;;;4.43;2.63;;;3.80;74.70;;;;;;6189218;23;20004;-82
2021/01/14 03:12:44;;;;;;;7.20;4.10;;;3.80;74.60;;;;;;6190133;23;20008;-82
2021/01/14 03:15:10;;;;;;;6.60;5.00;;;3.80;74.60;;;;;;6189804;23;20412;-82
2021/01/14 03:17:37;;;;;;;8.83;4.83;;;3.90;74.30;;;;;;6189641;23;20011;-83
2021/01/14 03:20:09;;;;;;;6.77;5.27;;;3.80;74.00;;;;;;6216769;23;20431;-83
2021/01/14 03:22:43;;;;;;;6.50;5.68;;;3.80;74.40;;;;;;6165208;23;20004;-82
2021/01/14 03:25:11;;;;;;;54.00;8.50;;;3.80;74.40;;;;;;6211416;23;20336;-83
2021/01/14 03:27:38;;;;;;;7.87;6.37;;;3.80;74.30;;;;;;6212342;23;20083;-82
2021/01/14 03:30:05;;;;;;;2.63;1.90;;;3.70;74.60;;;;;;6189726;23;20036;-82
2021/01/14 03:32:31;;;;;;;0.77;0.60;;;3.80;75.20;;;;;;6189391;23;20001;-82
2021/01/14 03:34:57;;;;;;;0.80;0.40;;;3.90;75.00;;;;;;6189946;23;20035;-82
2021/01/14 03:37:22;;;;;;;1.00;0.40;;;4.10;74.80;;;;;;6216525;23;20493;-82
2021/01/14 03:39:48;;;;;;;0.43;0.20;;;4.20;74.40;;;;;;6189763;23;20012;-82
2021/01/14 03:42:19;;;;;;;1.33;0.50;;;4.30;74.40;;;;;;6190391;23;20043;-82
2021/01/14 03:44:45;;;;;;;0.83;0.40;;;4.30;74.60;;;;;;6166096;23;20021;-82
2021/01/14 03:47:10;;;;;;;0.07;0.00;;;4.40;74.50;;;;;;6159999;23;20040;-82
2021/01/14 03:49:36;;;;;;;0.20;0.10;;;4.50;74.00;;;;;;6160308;23;20028;-82
2021/01/14 03:52:02;;;;;;;0.73;0.40;;;4.50;74.30;;;;;;6186233;23;20719;-82
2021/01/14 03:54:28;;;;;;;1.07;0.20;;;4.50;74.20;;;;;;6160520;23;20285;-82
2021/01/14 03:56:54;;;;;;;2.33;0.67;;;4.60;74.40;;;;;;6161056;23;20041;-82
2021/01/14 03:59:19;;;;;;;0.20;0.00;;;4.60;74.10;;;;;;6160705;23;20016;-82
2021/01/14 04:01:45;;;;;;;0.10;0.00;;;4.60;74.10;;;;;;6159825;23;20009;-82
2021/01/14 04:04:11;;;;;;;2.10;0.53;;;4.60;74.00;;;;;;6160658;23;20148;-82
2021/01/14 04:06:37;;;;;;;0.30;0.10;;;4.60;74.20;;;;;;6160225;23;20009;-82
2021/01/14 04:09:05;;;;;;;0.40;0.20;;;4.60;74.00;;;;;;6160133;23;20052;-82
2021/01/14 04:11:31;;;;;;;0.43;0.00;;;4.60;74.10;;;;;;6160038;23;20424;-82
2021/01/14 04:13:57;;;;;;;0.00;0.00;;;4.60;74.00;;;;;;6159868;23;20031;-82
2021/01/14 04:16:23;;;;;;;0.00;0.00;;;4.60;74.20;;;;;;6186751;23;20045;-82
2021/01/14 04:18:49;;;;;;;0.47;0.10;;;4.60;74.10;;;;;;6160394;23;20540;-82
2021/01/14 04:21:15;;;;;;;0.00;0.00;;;4.60;74.40;;;;;;6159646;23;20009;-82
2021/01/14 04:23:43;;;;;;;0.00;0.00;;;4.60;74.50;;;;;;6186004;23;20005;-82
2021/01/14 04:26:09;;;;;;;0.00;0.00;;;4.60;74.80;;;;;;6159437;23;20020;-82
2021/01/14 04:28:34;;;;;;;0.10;0.00;;;4.70;74.40;;;;;;6159536;23;20428;-82
2021/01/14 04:31:00;;;;;;;0.00;0.00;;;4.60;74.00;;;;;;6159246;23;20032;-82
2021/01/14 04:33:26;;;;;;;0.20;0.10;;;4.60;74.30;;;;;;6158805;23;20011;-82
2021/01/14 04:35:54;;;;;;;0.20;0.10;;;4.50;74.40;;;;;;6159764;23;20016;-82
2021/01/14 04:38:23;;;;;;;0.00;0.00;;;4.60;74.50;;;;;;6159559;23;20009;-82
2021/01/14 04:41:00;;;;;;;0.03;0.00;;;4.60;74.50;;;;;;6185907;23;20005;-82
2021/01/14 04:43:28;;;;;;;0.47;0.17;;;4.60;74.40;;;;;;6159315;23;20399;-82
2021/01/14 04:45:56;;;;;;;0.00;0.00;;;4.70;75.20;;;;;;6159839;23;20001;-82
2021/01/14 04:48:22;;;;;;;0.03;0.00;;;4.90;73.60;;;;;;6159243;23;20005;-82
2021/01/14 04:50:49;;;;;;;0.30;0.00;;;4.80;73.40;;;;;;6159642;23;20084;-82
2021/01/14 04:53:19;;;;;;;0.20;0.10;;;4.70;73.80;;;;;;6159428;23;20063;-82
2021/01/14 04:55:46;;;;;;;0.50;0.27;;;4.60;73.90;;;;;;6184442;23;20012;-82
2021/01/14 04:58:21;;;;;;;1.23;0.53;;;4.60;74.40;;;;;;6159116;23;20005;-82
2021/01/14 05:00:51;;;;;;;0.47;0.30;;;4.70;74.10;;;;;;6159785;23;20005;-82
2021/01/14 05:03:24;;;;;;;1.30;0.60;;;4.60;74.20;;;;;;6185912;23;20443;-82
2021/01/14 05:05:51;;;;;;;1.08;0.65;;;4.90;74.80;;;;;;6158195;23;20001;-82
2021/01/14 05:08:24;;;;;;;1.03;0.30;;;4.90;73.40;;;;;;6159458;23;20504;-82
2021/01/14 05:10:51;;;;;;;0.63;0.10;;;4.70;73.40;;;;;;6158220;23;20028;-82
2021/01/14 05:13:17;;;;;;;0.43;0.10;;;4.60;73.80;;;;;;6158409;23;20016;-82
2021/01/14 05:15:42;;;;;;;0.77;0.60;;;4.50;74.20;;;;;;6158047;23;20004;-82
2021/01/14 05:18:08;;;;;;;0.37;0.30;;;4.50;74.70;;;;;;6156237;23;20517;-82
2021/01/14 05:20:34;;;;;;;0.20;0.10;;;4.40;74.70;;;;;;6154758;23;20317;-82
2021/01/14 05:23:02;;;;;;;2.30;0.20;;;4.40;74.60;;;;;;6156420;23;20005;-82
2021/01/14 05:25:29;;;;;;;1.90;0.60;;;4.30;75.40;;;;;;6158532;23;20731;-82
2021/01/14 05:28:08;;;;;;;0.77;0.40;;;4.60;75.40;;;;;;6158900;23;20306;-82
2021/01/14 05:30:34;;;;;;;0.40;0.20;;;4.70;74.90;;;;;;6159795;23;20001;-82
2021/01/14 05:32:59;;;;;;;1.53;0.50;;;4.80;74.30;;;;;;6185206;23;20020;-82
2021/01/14 05:35:30;;;;;;;0.60;0.43;;;4.70;74.50;;;;;;6158472;23;20005;-82
2021/01/14 05:38:00;;;;;;;1.20;0.33;;;4.50;74.20;;;;;;6159196;23;20421;-82
2021/01/14 05:40:28;;;;;;;0.70;0.23;;;4.50;75.30;;;;;;6158352;23;20056;-82
2021/01/14 05:43:02;;;;;;;0.40;0.30;;;4.60;75.50;;;;;;6186243;23;20439;-82
2021/01/14 05:45:28;;;;;;;2.10;1.23;;;5.10;74.70;;;;;;6188962;23;20004;-82
2021/01/14 05:48:10;;;;;;;0.90;0.43;;;5.20;73.60;;;;;;6189367;23;20005;-82
2021/01/14 05:50:44;;;;;;;0.43;0.20;;;5.50;73.60;;;;;;6189445;23;20065;-82
2021/01/14 05:53:17;;;;;;;1.70;0.60;;;5.70;72.30;;;;;;6189906;23;20079;-82
2021/01/14 05:55:45;;;;;;;2.72;1.10;;;5.80;71.90;;;;;;6188449;23;20463;-82
2021/01/14 05:58:19;;;;;;;0.50;0.33;;;6.00;71.70;;;;;;6189601;23;20004;-82
2021/01/14 06:00:49;;;;;;;1.37;0.60;;;5.80;70.00;;;;;;6188538;23;20039;-82
2021/01/14 06:03:26;;;;;;;0.83;0.20;;;5.40;71.10;;;;;;6216025;23;20385;-82
2021/01/14 06:05:53;;;;;;;1.60;0.60;;;5.00;71.90;;;;;;6216086;23;20000;-82
2021/01/14 06:08:27;;;;;;;0.30;0.20;;;4.90;73.00;;;;;;6188583;23;20054;-82
2021/01/14 06:10:53;;;;;;;0.27;0.10;;;4.80;72.50;;;;;;6188756;23;20099;-82
2021/01/14 06:13:38;;;;;;;2.37;0.77;;;4.70;73.30;;;;;;6189301;23;20383;-82
2021/01/14 06:16:04;;;;;;;2.13;0.87;;;4.70;74.00;;;;;;6188787;23;20001;-82
2021/01/14 06:18:29;;;;;;;1.57;0.93;;;4.60;73.80;;;;;;6188469;23;20008;-82
2021/01/14 06:20:55;;;;;;;3.00;1.70;;;4.70;74.00;;;;;;6189224;23;20032;-82
2021/01/14 06:23:22;;;;;;;4.13;2.73;;;4.70;73.80;;;;;;6218324;23;20004;-82
2021/01/14 06:25:55;;;;;;;13.03;2.30;;;4.90;74.10;;;;;;6190482;23;20012;-82
2021/01/14 06:28:32;;;;;;;1.93;1.10;;;5.10;73.50;;;;;;6217435;23;20059;-82
2021/01/14 06:31:01;;;;;;;17.20;1.43;;;5.30;73.30;;;;;;6190950;23;20026;-82
2021/01/14 06:33:28;;;;;;;7.13;3.27;;;5.50;73.00;;;;;;6190598;23;20432;-82
2021/01/14 06:36:08;;;;;;;2.73;1.07;;;5.60;71.70;;;;;;6190797;23;20498;-82
2021/01/14 06:38:45;;;;;;;1.50;0.80;;;5.40;71.90;;;;;;6217987;23;20004;-82
2021/01/14 06:41:21;;;;;;;2.77;1.37;;;5.30;71.70;;;;;;6190401;23;20011;-82
2021/01/14 06:43:51;;;;;;;2.17;1.10;;;5.30;72.80;;;;;;6178959;23;20487;-82
2021/01/14 06:46:18;;;;;;;8.80;1.60;;;5.70;72.30;;;;;;6185836;23;20103;-82
2021/01/14 06:48:59;;;;;;;2.57;1.13;;;5.80;72.20;;;;;;6159720;23;20132;-82
2021/01/14 06:51:42;;;;;;;3.43;1.90;;;5.80;70.80;;;;;;6160934;23;20040;-82
2021/01/14 06:54:11;;;;;;;2.63;1.30;;;5.90;70.20;;;;;;6159233;23;20092;-82
2021/01/14 06:56:47;;;;;;;1.47;0.93;;;5.80;70.00;;;;;;6160084;23;20055;-82
2021/01/14 06:59:17;;;;;;;1.70;1.07;;;5.70;70.70;;;;;;6160286;23;20092;-82
2021/01/14 07:02:05;;;;;;;3.57;1.30;;;5.60;71.00;;;;;;6159244;23;20013;-82
2021/01/14 07:05:03;;;;;;;2.50;0.70;;;5.30;70.60;;;;;;6159895;23;20009;-82
2021/01/14 07:07:29;;;;;;;2.07;0.90;;;5.20;71.70;;;;;;6186621;23;20005;-82
2021/01/14 07:10:07;;;;;;;1.57;0.80;;;5.60;71.30;;;;;;6159897;23;20033;-82
2021/01/14 07:12:42;;;;;;;1.80;1.00;;;5.60;70.50;;;;;;6160130;23;20066;-82
2021/01/14 07:15:10;;;;;;;2.13;1.07;;;5.30;70.40;;;;;;6188883;23;20471;-82
2021/01/14 07:17:39;;;;;;;1.00;0.60;;;5.00;71.30;;;;;;6187059;23;20001;-82
2021/01/14 07:20:11;;;;;;;2.00;0.83;;;4.90;72.40;;;;;;6159306;23;20051;-82
2021/01/14 07:22:53;;;;;;;3.37;1.40;;;4.90;72.10;;;;;;6160160;23;20055;-82
2021/01/14 07:25:20;;;;;;;2.53;1.10;;;5.10;73.10;;;;;;6159515;23;20503;-82
2021/01/14 07:27:48;;;;;;;3.77;1.90;;;5.30;71.60;;;;;;6155606;23;20333;-82
2021/01/14 07:30:17;;;;;;;5.03;3.13;;;5.20;71.50;;;;;;6155561;23;20398;-82
2021/01/14 07:32:56;;;;;;;4.43;2.83;;;5.00;71.80;;;;;;6185136;23;19998;-81
2021/01/14 07:35:35;;;;;;;0.40;0.30;;;4.90;72.20;;;;;;6186522;23;19997;-81
2021/01/14 07:38:02;;;;;;;0.23;0.10;;;4.80;72.60;;;;;;6160229;23;20009;-81
2021/01/14 07:40:33;;;;;;;0.73;0.30;;;4.70;72.60;;;;;;6158894;23;20056;-81
2021/01/14 07:43:00;;;;;;;0.83;0.20;;;4.70;72.70;;;;;;6188376;23;20004;-81
2021/01/14 07:45:26;;;;;;;0.77;0.20;;;4.60;73.10;;;;;;6187814;23;20004;-81
2021/01/14 07:47:52;;;;;;;2.30;1.10;;;4.70;73.30;;;;;;6215911;23;20001;-81
2021/01/14 07:50:25;;;;;;;1.20;0.80;;;4.60;73.20;;;;;;6187688;23;20087;-81
2021/01/14 07:52:53;;;;;;;1.23;0.80;;;4.60;73.30;;;;;;6190048;23;20005;-81
2021/01/14 07:55:36;;;;;;;0.47;0.20;;;4.70;73.40;;;;;;6164738;23;20001;-81
2021/01/14 07:58:20;;;;;;;0.30;0.20;;;4.60;73.10;;;;;;6189734;23;20416;-81
2021/01/14 08:01:06;;;;;;;0.87;0.10;;;4.50;73.30;;;;;;6188531;23;20008;-81
2021/01/14 08:03:40;;;;;;;0.83;0.40;;;4.60;73.50;;;;;;6217132;23;20005;-81
2021/01/14 08:06:16;;;;;;;0.30;0.20;;;4.70;73.20;;;;;;6215283;23;20100;-81
2021/01/14 08:08:41;;;;;;;0.10;0.10;;;4.60;72.80;;;;;;6189618;23;20008;-81
2021/01/14 08:31:38;;;;;;;0.63;0.27;;;4.00;71.90;;;;;;5105917;27;20363;-80
2021/01/14 08:34:08;;;;;;;1.13;0.20;;;4.60;69.90;;;;;;5087844;28;20032;-82
2021/01/14 08:36:44;;;;;;;1.97;1.27;;;4.50;70.50;;;;;;5084876;28;20077;-83
2021/01/14 08:39:10;;;;;;;2.10;1.50;;;4.50;70.70;;;;;;5088650;28;20025;-81
2021/01/14 08:41:37;;;;;;;2.43;1.00;;;4.40;70.80;;;;;;5086909;28;20047;-82
2021/01/14 08:44:07;;;;;;;1.00;0.50;;;4.40;70.70;;;;;;5088418;28;20475;-83
2021/01/14 08:46:46;;;;;;;2.50;0.70;;;4.30;70.50;;;;;;5084864;28;20040;-83
2021/01/14 08:49:14;;;;;;;2.10;0.80;;;4.30;70.50;;;;;;5080558;28;20037;-83
2021/01/14 08:51:41;;;;;;;1.03;0.37;;;4.20;70.70;;;;;;5116052;27;20064;-83
2021/01/14 08:54:07;;;;;;;1.60;0.57;;;4.20;70.70;;;;;;5086695;28;20096;-82
2021/01/14 08:56:33;;;;;;;0.87;0.57;;;4.10;70.50;;;;;;5089869;28;20028;-82
2021/01/14 08:59:13;;;;;;;1.07;0.70;;;4.10;70.80;;;;;;5089217;28;20032;-81
2021/01/14 09:01:40;;;;;;;1.37;0.80;;;4.10;70.70;;;;;;5086581;28;20032;-80
2021/01/14 09:04:07;;;;;;;1.00;0.87;;;4.10;70.60;;;;;;5088876;28;20039;-80
2021/01/14 09:06:38;;;;;;;3.50;0.80;;;4.10;70.40;;;;;;5086619;28;20036;-82
2021/01/14 09:09:10;;;;;;;3.50;1.23;;;4.10;70.30;;;;;;5084143;28;22167;-81
2021/01/14 09:11:36;;;;;;;1.30;0.90;;;4.00;70.50;;;;;;5088620;28;20035;-80
2021/01/14 09:14:05;;;;;;;1.07;0.53;;;3.90;70.10;;;;;;5089942;28;20519;-80
2021/01/14 09:16:32;;;;;;;0.93;0.20;;;3.80;70.20;;;;;;5082704;28;20082;-80
2021/01/14 09:18:58;;;;;;;0.40;0.30;;;3.70;70.50;;;;;;5079490;28;20615;-80
2021/01/14 09:21:24;;;;;;;0.30;0.10;;;3.60;70.20;;;;;;5080343;28;20032;-80
2021/01/14 09:23:50;;;;;;;0.77;0.20;;;3.60;70.50;;;;;;5084783;28;20099;-80
2021/01/14 09:26:22;;;;;;;0.40;0.20;;;3.60;70.40;;;;;;5082472;28;20123;-80
2021/01/14 09:28:52;;;;;;;2.58;0.90;;;3.60;70.50;;;;;;5074301;28;20048;-80
2021/01/14 09:31:21;;;;;;;2.20;0.70;;;3.60;70.60;;;;;;5064985;28;20078;-80
2021/01/14 09:33:49;;;;;;;1.80;0.70;;;3.70;70.50;;;;;;5068631;28;20108;-81
2021/01/14 09:36:20;;;;;;;2.00;0.70;;;3.80;70.50;;;;;;5067181;28;20052;-80
2021/01/14 09:38:51;;;;;;;2.20;0.80;;;3.80;69.90;;;;;;5064748;28;20047;-80
2021/01/14 09:41:30;;;;;;;1.53;0.60;;;3.80;70.20;;;;;;5069223;28;20429;-80
2021/01/14 09:44:05;;;;;;;4.10;1.50;;;3.90;70.10;;;;;;5069323;28;20021;-80
2021/01/14 09:46:35;;;;;;;3.60;1.67;;;3.90;70.20;;;;;;5066268;28;20025;-81
2021/01/14 09:49:09;;;;;;;3.77;1.37;;;4.00;70.20;;;;;;5069523;28;20025;-81
2021/01/14 09:51:46;;;;;;;5.03;2.37;;;4.00;70.70;;;;;;5069550;28;20042;-81
2021/01/14 09:54:12;;;;;;;7.10;2.47;;;4.10;70.40;;;;;;5070780;28;20016;-81
2021/01/14 09:56:43;;;;;;;24.10;9.77;;;4.20;70.20;;;;;;5067325;28;20112;-80
2021/01/14 09:59:20;;;;;;;5.67;2.40;;;4.10;69.80;;;;;;5086273;28;20063;-80
2021/01/14 10:01:56;;;;;;;5.53;2.13;;;3.90;69.30;;;;;;5084052;28;20055;-81
2021/01/14 10:04:25;;;;;;;1.67;0.90;;;3.80;70.00;;;;;;5068339;28;20034;-81
2021/01/14 10:07:02;;;;;;;2.93;0.80;;;3.70;70.10;;;;;;5086028;28;20032;-81
2021/01/14 10:09:28;;;;;;;0.70;0.50;;;3.70;70.70;;;;;;5067209;28;20033;-81
2021/01/14 10:11:55;;;;;;;2.03;0.63;;;3.70;70.50;;;;;;5072129;28;20470;-81
2021/01/14 10:14:22;;;;;;;1.30;0.40;;;3.70;70.30;;;;;;5067964;28;20028;-81
2021/01/14 10:16:50;;;;;;;2.73;1.40;;;3.60;70.60;;;;;;5062890;28;20033;-81
2021/01/14 10:19:21;;;;;;;3.67;1.67;;;3.50;70.80;;;;;;5065952;28;20063;-81
2021/01/14 10:21:48;;;;;;;2.37;1.37;;;3.50;71.60;;;;;;5066209;28;20441;-81
2021/01/14 10:24:25;;;;;;;5.37;2.73;;;3.60;71.00;;;;;;5070655;28;20047;-81
2021/01/14 10:26:51;;;;;;;3.23;1.60;;;3.60;71.10;;;;;;5072834;28;20032;-81
2021/01/14 10:29:40;;;;;;;2.03;1.10;;;3.80;71.10;;;;;;5070203;28;20049;-81
2021/01/14 10:32:08;;;;;;;2.47;1.70;;;3.90;70.90;;;;;;5067870;28;20020;-81
2021/01/14 10:34:44;;;;;;;5.23;2.80;;;3.90;70.70;;;;;;5085828;28;20024;-81
2021/01/14 10:37:25;;;;;;;6.47;3.00;;;4.00;70.60;;;;;;5070809;28;20033;-82
2021/01/14 10:39:56;;;;;;;5.13;2.17;;;4.00;70.90;;;;;;5067443;28;20142;-82
2021/01/14 10:42:35;;;;;;;3.33;2.10;;;4.00;70.20;;;;;;5073444;28;20115;-82
2021/01/14 10:45:12;;;;;;;4.17;2.90;;;4.10;70.10;;;;;;5066337;28;20063;-82
2021/01/14 10:47:41;;;;;;;4.43;3.00;;;4.20;69.90;;;;;;5065735;28;20055;-82
2021/01/14 10:50:27;;;;;;;4.30;2.87;;;4.20;69.80;;;;;;5066447;28;20064;-82
2021/01/14 10:53:04;;;;;;;4.77;3.13;;;4.20;69.70;;;;;;5067955;28;20025;-82
2021/01/14 10:55:30;;;;;;;9.60;4.57;;;4.20;69.70;;;;;;5066108;28;20020;-82
2021/01/14 10:57:58;;;;;;;5.63;3.40;;;4.30;69.60;;;;;;5066398;28;20116;-82
2021/01/14 11:00:26;;;;;;;3.13;2.17;;;4.30;69.60;;;;;;5064612;28;20033;-82
2021/01/14 11:03:15;;;;;;;6.50;4.00;;;4.40;69.40;;;;;;5065037;28;20032;-82
2021/01/14 11:05:49;;;;;;;7.90;4.10;;;4.30;69.40;;;;;;5066961;28;20118;-82
2021/01/14 11:08:15;;;;;;;3.70;1.83;;;4.30;69.40;;;;;;5084501;28;20132;-82
2021/01/14 11:10:43;;;;;;;7.77;2.63;;;4.30;69.20;;;;;;5072138;28;20454;-82
2021/01/14 11:13:10;;;;;;;7.47;3.10;;;4.30;69.00;;;;;;5070619;28;20542;-82
2021/01/14 11:15:36;;;;;;;3.83;2.40;;;4.30;69.10;;;;;;5072098;28;20024;-82
2021/01/14 11:18:04;;;;;;;5.50;2.70;;;4.30;69.00;;;;;;5070160;28;20036;-82
2021/01/14 11:20:31;;;;;;;4.73;2.80;;;4.30;68.90;;;;;;5075793;28;20067;-82
2021/01/14 11:22:56;;;;;;;11.03;5.23;;;4.30;68.70;;;;;;5077792;28;20043;-82
2021/01/14 11:25:22;;;;;;;7.90;4.67;;;4.40;69.00;;;;;;5072248;28;20028;-82
2021/01/14 11:27:48;;;;;;;12.77;6.70;;;4.40;68.90;;;;;;5079929;28;20037;-81
2021/01/14 11:30:15;;;;;;;13.97;5.90;;;4.40;68.80;;;;;;5093830;28;20068;-81
2021/01/14 11:32:41;;;;;;;19.87;9.43;;;4.50;68.60;;;;;;5090338;28;20084;-80
2021/01/14 11:35:08;;;;;;;32.30;14.90;;;4.50;69.30;;;;;;5092309;28;20016;-80
2021/01/14 11:37:33;;;;;;;12.73;8.23;;;4.40;68.80;;;;;;5078290;28;20287;-80
2021/01/14 11:39:59;;;;;;;14.43;7.17;;;4.40;68.90;;;;;;5054273;28;20056;-80
2021/01/14 11:42:29;;;;;;;19.40;9.77;;;4.40;68.80;;;;;;5071372;28;20056;-80
2021/01/14 11:44:55;;;;;;;15.10;7.13;;;4.40;68.90;;;;;;5059962;28;20036;-81
2021/01/14 11:47:20;;;;;;;14.53;6.30;;;4.40;69.10;;;;;;5052526;28;20066;-81
2021/01/14 11:49:47;;;;;;;21.60;10.10;;;4.40;69.00;;;;;;5068080;28;20040;-81
2021/01/14 11:52:15;;;;;;;24.07;14.27;;;4.40;68.80;;;;;;5069500;28;20071;-81
2021/01/14 11:54:45;;;;;;;15.77;9.20;;;4.40;68.80;;;;;;5069575;28;20029;-80
2021/01/14 11:57:11;;;;;;;15.33;8.77;;;4.50;68.70;;;;;;5070215;28;20052;-81
2021/01/14 11:59:37;;;;;;;11.03;7.43;;;4.50;68.70;;;;;;5071758;28;20051;-81
2021/01/14 12:02:03;;;;;;;21.70;12.40;;;4.50;68.80;;;;;;5069693;28;20086;-81
2021/01/14 12:04:28;;;;;;;12.33;8.43;;;4.50;68.70;;;;;;5068516;28;20492;-81
2021/01/14 12:06:54;;;;;;;12.47;8.70;;;4.60;69.40;;;;;;5072306;28;20032;-81
2021/01/14 12:09:20;;;;;;;13.03;8.23;;;4.60;68.60;;;;;;5067042;28;20029;-81
2021/01/14 12:11:47;;;;;;;18.30;11.23;;;4.60;68.70;;;;;;5064675;28;20043;-81
2021/01/14 12:14:13;;;;;;;15.47;9.37;;;4.60;68.60;;;;;;5066672;28;20139;-81
2021/01/14 12:16:38;;;;;;;14.73;10.37;;;4.60;68.70;;;;;;5071913;28;20029;-80
2021/01/14 12:19:04;;;;;;;12.60;8.27;;;4.50;68.50;;;;;;5065010;28;20744;-81
2021/01/14 12:21:30;;;;;;;13.10;8.47;;;4.50;68.90;;;;;;5059395;28;20058;-81
2021/01/14 12:23:56;;;;;;;14.97;8.77;;;4.60;68.60;;;;;;5066608;28;20028;-81
2021/01/14 12:26:21;;;;;;;13.47;8.93;;;4.60;68.30;;;;;;5064104;28;20100;-81
2021/01/14 12:28:48;;;;;;;15.67;9.07;;;4.60;68.30;;;;;;5066962;28;20033;-81
2021/01/14 12:31:14;;;;;;;21.23;11.73;;;4.60;68.10;;;;;;5072363;28;20052;-81
2021/01/14 12:33:39;;;;;;;16.10;8.80;;;4.60;68.00;;;;;;5072406;28;20040;-81
2021/01/14 12:36:06;;;;;;;12.10;7.50;;;4.60;67.70;;;;;;5070538;28;20147;-81
2021/01/14 12:38:32;;;;;;;14.83;9.33;;;4.60;67.90;;;;;;5071734;28;20029;-81
2021/01/14 12:40:58;;;;;;;10.53;6.10;;;4.50;68.00;;;;;;5060562;28;20031;-80
2021/01/14 12:43:24;;;;;;;10.67;5.80;;;4.50;68.00;;;;;;5054441;28;20036;-80
2021/01/14 12:45:53;;;;;;;22.57;11.20;;;4.40;67.90;;;;;;5060229;28;20339;-81
2021/01/14 12:48:19;;;;;;;12.30;5.70;;;4.40;68.30;;;;;;5064959;28;20036;-81
2021/01/14 12:50:45;;;;;;;12.07;6.20;;;4.50;68.20;;;;;;5069999;28;20101;-81
2021/01/14 12:53:12;;;;;;;9.53;4.60;;;4.40;68.10;;;;;;5071684;28;20054;-81
2021/01/14 12:55:38;;;;;;;10.17;4.50;;;4.40;67.90;;;;;;5071192;28;20579;-81
2021/01/14 12:58:04;;;;;;;8.60;5.17;;;4.40;67.80;;;;;;5071735;28;20798;-81
2021/01/14 13:00:30;;;;;;;11.70;6.00;;;4.40;68.00;;;;;;5065713;28;20112;-81
2021/01/14 13:02:56;;;;;;;6.20;4.43;;;4.50;68.20;;;;;;5052140;28;20178;-81
2021/01/14 13:05:22;;;;;;;9.07;5.33;;;4.50;68.20;;;;;;5068553;28;20037;-80
2021/01/14 13:07:48;;;;;;;10.70;6.30;;;4.50;67.90;;;;;;5060313;28;20037;-80
2021/01/14 13:10:13;;;;;;;7.43;3.80;;;4.50;68.00;;;;;;5068579;28;20383;-81
2021/01/14 13:12:39;;;;;;;4.67;2.50;;;4.50;67.90;;;;;;5066608;28;20548;-81
2021/01/14 13:15:05;;;;;;;8.43;3.17;;;4.30;68.00;;;;;;5070914;28;20035;-81
2021/01/14 13:17:31;;;;;;;7.13;3.50;;;4.30;68.10;;;;;;5063690;28;20057;-81
2021/01/14 13:19:59;;;;;;;10.97;4.70;;;4.30;68.00;;;;;;5072001;28;20035;-81
2021/01/14 13:22:25;;;;;;;5.30;2.43;;;4.30;68.10;;;;;;5070490;28;20052;-81
2021/01/14 13:24:51;;;;;;;3.37;2.20;;;4.30;67.90;;;;;;5063502;28;20047;-81